Terminal Aerodrome Forecast
Issued by NWS Melbourne, FL

Home | Current Version | Previous Version | Text Only | Print | Product List | Glossary On
Versions: 1 2 3 4 5 6 7 8 9 10 11 12 13 14 15 16 17 18 19
000
FTUS42 KMLB 020500
TAFDAB
TAF
KDAB 020524Z 0206/0306 05003KT P6SM FEW020 FEW040 SCT060
     FM021400 05005KT P6SM SCT060 BKN120
     FM021800 05009KT P6SM SCT120 BKN250
     FM030000 05003KT P6SM FEW120 SCT250=

USA.gov is the U.S. government's official web portal to all federal, state and local government web resources and services.